sensor_id;sensor_type;location;lat;lon;timestamp;P1;durP1;ratioP1;P2;durP2;ratioP2
23747;SDS011;12054;53.662;10.126;2023-06-22T00:02:05;4.32;;;3.20;;
23747;SDS011;12054;53.662;10.126;2023-06-22T00:04:31;3.63;;;3.20;;
23747;SDS011;12054;53.662;10.126;2023-06-22T00:06:56;4.20;;;3.20;;
23747;SDS011;12054;53.662;10.126;2023-06-22T00:09:22;3.90;;;3.30;;
23747;SDS011;12054;53.662;10.126;2023-06-22T00:11:47;6.53;;;3.65;;
23747;SDS011;12054;53.662;10.126;2023-06-22T00:14:14;4.60;;;3.58;;
23747;SDS011;12054;53.662;10.126;2023-06-22T00:16:40;5.80;;;3.80;;
23747;SDS011;12054;53.662;10.126;2023-06-22T00:19:07;4.30;;;3.70;;
23747;SDS011;12054;53.662;10.126;2023-06-22T00:21:36;4.75;;;4.13;;
23747;SDS011;12054;53.662;10.126;2023-06-22T00:24:03;4.95;;;4.13;;
23747;SDS011;12054;53.662;10.126;2023-06-22T00:26:29;5.90;;;4.63;;
23747;SDS011;12054;53.662;10.126;2023-06-22T00:28:54;4.85;;;4.32;;
23747;SDS011;12054;53.662;10.126;2023-06-22T00:31:20;4.47;;;3.78;;
23747;SDS011;12054;53.662;10.126;2023-06-22T00:33:45;4.70;;;3.83;;
23747;SDS011;12054;53.662;10.126;2023-06-22T00:36:11;4.30;;;3.90;;
23747;SDS011;12054;53.662;10.126;2023-06-22T00:38:41;5.32;;;4.07;;
23747;SDS011;12054;53.662;10.126;2023-06-22T00:41:06;6.05;;;4.35;;
23747;SDS011;12054;53.662;10.126;2023-06-22T00:43:32;5.85;;;4.55;;
23747;SDS011;12054;53.662;10.126;2023-06-22T00:45:58;4.55;;;4.10;;
23747;SDS011;12054;53.662;10.126;2023-06-22T00:48:23;5.45;;;3.80;;
23747;SDS011;12054;53.662;10.126;2023-06-22T00:50:50;5.88;;;4.10;;
23747;SDS011;12054;53.662;10.126;2023-06-22T00:53:18;4.28;;;3.88;;
23747;SDS011;12054;53.662;10.126;2023-06-22T00:55:44;6.10;;;3.83;;
23747;SDS011;12054;53.662;10.126;2023-06-22T00:58:16;5.10;;;4.57;;
23747;SDS011;12054;53.662;10.126;2023-06-22T01:00:42;4.40;;;4.00;;
23747;SDS011;12054;53.662;10.126;2023-06-22T01:03:07;4.85;;;4.22;;
23747;SDS011;12054;53.662;10.126;2023-06-22T01:05:34;4.93;;;4.25;;
23747;SDS011;12054;53.662;10.126;2023-06-22T01:08:04;4.55;;;4.10;;
23747;SDS011;12054;53.662;10.126;2023-06-22T01:10:45;4.72;;;4.30;;
23747;SDS011;12054;53.662;10.126;2023-06-22T01:13:37;4.47;;;4.07;;
23747;SDS011;12054;53.662;10.126;2023-06-22T01:16:20;6.13;;;4.60;;
23747;SDS011;12054;53.662;10.126;2023-06-22T01:18:50;7.10;;;4.85;;
23747;SDS011;12054;53.662;10.126;2023-06-22T01:21:20;6.13;;;4.53;;
23747;SDS011;12054;53.662;10.126;2023-06-22T01:26:35;6.30;;;4.68;;
23747;SDS011;12054;53.662;10.126;2023-06-22T01:29:05;5.35;;;4.60;;
23747;SDS011;12054;53.662;10.126;2023-06-22T01:31:33;4.90;;;4.40;;
23747;SDS011;12054;53.662;10.126;2023-06-22T01:34:01;6.57;;;4.25;;
23747;SDS011;12054;53.662;10.126;2023-06-22T01:36:30;4.60;;;4.13;;
23747;SDS011;12054;53.662;10.126;2023-06-22T01:38:57;5.72;;;4.15;;
23747;SDS011;12054;53.662;10.126;2023-06-22T01:41:27;5.35;;;4.65;;
23747;SDS011;12054;53.662;10.126;2023-06-22T01:43:54;5.25;;;4.22;;
23747;SDS011;12054;53.662;10.126;2023-06-22T01:46:21;4.88;;;4.47;;
23747;SDS011;12054;53.662;10.126;2023-06-22T01:48:47;5.70;;;4.00;;
23747;SDS011;12054;53.662;10.126;2023-06-22T01:51:13;6.60;;;4.00;;
23747;SDS011;12054;53.662;10.126;2023-06-22T01:53:39;5.63;;;4.00;;
23747;SDS011;12054;53.662;10.126;2023-06-22T01:56:04;4.50;;;3.92;;
23747;SDS011;12054;53.662;10.126;2023-06-22T01:58:30;4.60;;;4.05;;
23747;SDS011;12054;53.662;10.126;2023-06-22T02:01:09;6.20;;;4.60;;
23747;SDS011;12054;53.662;10.126;2023-06-22T02:03:41;6.25;;;4.32;;
23747;SDS011;12054;53.662;10.126;2023-06-22T02:06:14;5.97;;;4.50;;
23747;SDS011;12054;53.662;10.126;2023-06-22T02:08:49;5.15;;;4.65;;
23747;SDS011;12054;53.662;10.126;2023-06-22T02:11:20;4.50;;;4.05;;
23747;SDS011;12054;53.662;10.126;2023-06-22T02:13:47;5.18;;;4.22;;
23747;SDS011;12054;53.662;10.126;2023-06-22T02:16:13;5.90;;;4.18;;
23747;SDS011;12054;53.662;10.126;2023-06-22T02:18:47;4.95;;;4.25;;
23747;SDS011;12054;53.662;10.126;2023-06-22T02:21:15;6.25;;;4.40;;
23747;SDS011;12054;53.662;10.126;2023-06-22T02:23:41;8.07;;;4.53;;
23747;SDS011;12054;53.662;10.126;2023-06-22T02:26:07;6.40;;;4.72;;
23747;SDS011;12054;53.662;10.126;2023-06-22T02:28:33;5.05;;;4.55;;
23747;SDS011;12054;53.662;10.126;2023-06-22T02:30:58;4.30;;;3.90;;
23747;SDS011;12054;53.662;10.126;2023-06-22T02:33:24;5.55;;;4.28;;
23747;SDS011;12054;53.662;10.126;2023-06-22T02:35:50;5.15;;;4.30;;
23747;SDS011;12054;53.662;10.126;2023-06-22T02:38:15;4.97;;;4.03;;
23747;SDS011;12054;53.662;10.126;2023-06-22T02:40:42;5.78;;;3.72;;
23747;SDS011;12054;53.662;10.126;2023-06-22T02:43:07;5.43;;;4.05;;
23747;SDS011;12054;53.662;10.126;2023-06-22T02:45:33;4.82;;;4.20;;
23747;SDS011;12054;53.662;10.126;2023-06-22T02:47:58;5.53;;;4.05;;
23747;SDS011;12054;53.662;10.126;2023-06-22T02:50:24;5.18;;;4.22;;
23747;SDS011;12054;53.662;10.126;2023-06-22T02:52:50;5.85;;;4.10;;
23747;SDS011;12054;53.662;10.126;2023-06-22T02:55:16;7.65;;;4.35;;
23747;SDS011;12054;53.662;10.126;2023-06-22T02:57:41;6.93;;;4.53;;
23747;SDS011;12054;53.662;10.126;2023-06-22T03:00:12;5.15;;;4.15;;
23747;SDS011;12054;53.662;10.126;2023-06-22T03:02:47;5.05;;;3.80;;
23747;SDS011;12054;53.662;10.126;2023-06-22T03:05:14;6.05;;;4.07;;
23747;SDS011;12054;53.662;10.126;2023-06-22T03:07:46;4.75;;;3.65;;
23747;SDS011;12054;53.662;10.126;2023-06-22T03:10:12;6.28;;;4.07;;
23747;SDS011;12054;53.662;10.126;2023-06-22T03:12:39;4.80;;;3.92;;
23747;SDS011;12054;53.662;10.126;2023-06-22T03:15:05;4.90;;;3.85;;
23747;SDS011;12054;53.662;10.126;2023-06-22T03:17:32;6.32;;;4.40;;
23747;SDS011;12054;53.662;10.126;2023-06-22T03:19:58;3.20;;;2.90;;
23747;SDS011;12054;53.662;10.126;2023-06-22T03:22:24;5.15;;;3.55;;
23747;SDS011;12054;53.662;10.126;2023-06-22T03:24:49;4.78;;;3.70;;
23747;SDS011;12054;53.662;10.126;2023-06-22T03:27:14;5.32;;;3.65;;
23747;SDS011;12054;53.662;10.126;2023-06-22T03:29:40;5.93;;;3.40;;
23747;SDS011;12054;53.662;10.126;2023-06-22T03:32:06;3.67;;;3.33;;
23747;SDS011;12054;53.662;10.126;2023-06-22T03:34:31;5.10;;;4.10;;
23747;SDS011;12054;53.662;10.126;2023-06-22T03:37:01;5.07;;;4.00;;
23747;SDS011;12054;53.662;10.126;2023-06-22T03:39:26;5.93;;;4.28;;
23747;SDS011;12054;53.662;10.126;2023-06-22T03:41:52;6.68;;;4.60;;
23747;SDS011;12054;53.662;10.126;2023-06-22T03:44:17;4.85;;;4.32;;
23747;SDS011;12054;53.662;10.126;2023-06-22T03:46:43;6.47;;;5.00;;
23747;SDS011;12054;53.662;10.126;2023-06-22T03:49:08;5.10;;;4.57;;
23747;SDS011;12054;53.662;10.126;2023-06-22T03:51:34;4.97;;;4.03;;
23747;SDS011;12054;53.662;10.126;2023-06-22T03:53:59;6.15;;;4.55;;
23747;SDS011;12054;53.662;10.126;2023-06-22T03:56:25;5.85;;;5.13;;
23747;SDS011;12054;53.662;10.126;2023-06-22T03:58:50;5.78;;;5.10;;
23747;SDS011;12054;53.662;10.126;2023-06-22T04:01:16;5.22;;;4.68;;
23747;SDS011;12054;53.662;10.126;2023-06-22T04:03:42;8.23;;;5.05;;
23747;SDS011;12054;53.662;10.126;2023-06-22T04:06:07;8.38;;;5.20;;
23747;SDS011;12054;53.662;10.126;2023-06-22T04:08:33;7.13;;;5.10;;
23747;SDS011;12054;53.662;10.126;2023-06-22T04:10:59;8.60;;;5.47;;
23747;SDS011;12054;53.662;10.126;2023-06-22T04:13:24;6.72;;;5.32;;
23747;SDS011;12054;53.662;10.126;2023-06-22T04:15:50;7.13;;;5.75;;
23747;SDS011;12054;53.662;10.126;2023-06-22T04:18:15;6.88;;;5.95;;
23747;SDS011;12054;53.662;10.126;2023-06-22T04:20:41;7.45;;;6.05;;
23747;SDS011;12054;53.662;10.126;2023-06-22T04:23:06;9.20;;;6.15;;
23747;SDS011;12054;53.662;10.126;2023-06-22T04:25:31;7.55;;;6.07;;
23747;SDS011;12054;53.662;10.126;2023-06-22T04:27:57;6.07;;;5.40;;
23747;SDS011;12054;53.662;10.126;2023-06-22T04:30:22;7.38;;;6.13;;
23747;SDS011;12054;53.662;10.126;2023-06-22T04:32:48;8.68;;;6.00;;
23747;SDS011;12054;53.662;10.126;2023-06-22T04:35:22;7.45;;;5.95;;
23747;SDS011;12054;53.662;10.126;2023-06-22T04:37:51;8.45;;;6.75;;
23747;SDS011;12054;53.662;10.126;2023-06-22T04:40:19;6.25;;;5.63;;
23747;SDS011;12054;53.662;10.126;2023-06-22T04:42:46;9.45;;;6.22;;
23747;SDS011;12054;53.662;10.126;2023-06-22T04:45:17;7.57;;;5.60;;
23747;SDS011;12054;53.662;10.126;2023-06-22T04:47:42;9.35;;;6.72;;
23747;SDS011;12054;53.662;10.126;2023-06-22T04:50:10;8.18;;;6.13;;
23747;SDS011;12054;53.662;10.126;2023-06-22T04:52:36;7.95;;;5.90;;
23747;SDS011;12054;53.662;10.126;2023-06-22T04:55:02;7.00;;;5.68;;
23747;SDS011;12054;53.662;10.126;2023-06-22T04:57:28;8.57;;;6.50;;
23747;SDS011;12054;53.662;10.126;2023-06-22T05:00:00;8.38;;;6.53;;
23747;SDS011;12054;53.662;10.126;2023-06-22T05:02:26;7.05;;;5.72;;
23747;SDS011;12054;53.662;10.126;2023-06-22T05:04:57;9.77;;;6.47;;
23747;SDS011;12054;53.662;10.126;2023-06-22T05:07:23;6.85;;;5.70;;
23747;SDS011;12054;53.662;10.126;2023-06-22T05:09:50;7.07;;;5.53;;
23747;SDS011;12054;53.662;10.126;2023-06-22T05:12:16;10.57;;;6.07;;
23747;SDS011;12054;53.662;10.126;2023-06-22T05:14:41;6.90;;;5.50;;
23747;SDS011;12054;53.662;10.126;2023-06-22T05:17:07;6.85;;;5.53;;
23747;SDS011;12054;53.662;10.126;2023-06-22T05:19:38;8.68;;;5.80;;
23747;SDS011;12054;53.662;10.126;2023-06-22T05:22:04;8.13;;;6.35;;
23747;SDS011;12054;53.662;10.126;2023-06-22T05:24:31;10.52;;;5.75;;
23747;SDS011;12054;53.662;10.126;2023-06-22T05:26:56;8.13;;;6.15;;
23747;SDS011;12054;53.662;10.126;2023-06-22T05:29:22;6.97;;;5.72;;
23747;SDS011;12054;53.662;10.126;2023-06-22T05:31:48;6.85;;;5.40;;
23747;SDS011;12054;53.662;10.126;2023-06-22T05:34:14;8.60;;;5.97;;
23747;SDS011;12054;53.662;10.126;2023-06-22T05:36:39;8.68;;;5.20;;
23747;SDS011;12054;53.662;10.126;2023-06-22T05:39:11;8.07;;;5.10;;
23747;SDS011;12054;53.662;10.126;2023-06-22T05:41:41;7.10;;;4.95;;
23747;SDS011;12054;53.662;10.126;2023-06-22T05:44:08;6.97;;;4.47;;
23747;SDS011;12054;53.662;10.126;2023-06-22T05:46:33;6.63;;;4.82;;
23747;SDS011;12054;53.662;10.126;2023-06-22T05:48:59;5.55;;;4.05;;
23747;SDS011;12054;53.662;10.126;2023-06-22T05:51:24;5.75;;;3.80;;
23747;SDS011;12054;53.662;10.126;2023-06-22T05:53:50;5.45;;;3.90;;
23747;SDS011;12054;53.662;10.126;2023-06-22T05:56:16;4.47;;;3.70;;
23747;SDS011;12054;53.662;10.126;2023-06-22T05:58:42;4.68;;;3.60;;
23747;SDS011;12054;53.662;10.126;2023-06-22T06:01:07;6.53;;;3.85;;
23747;SDS011;12054;53.662;10.126;2023-06-22T06:03:33;6.03;;;3.42;;
23747;SDS011;12054;53.662;10.126;2023-06-22T06:05:58;4.65;;;3.10;;
23747;SDS011;12054;53.662;10.126;2023-06-22T06:08:25;4.63;;;3.20;;
23747;SDS011;12054;53.662;10.126;2023-06-22T06:10:50;4.38;;;3.13;;
23747;SDS011;12054;53.662;10.126;2023-06-22T06:13:18;5.38;;;2.90;;
23747;SDS011;12054;53.662;10.126;2023-06-22T06:15:44;3.80;;;2.97;;
23747;SDS011;12054;53.662;10.126;2023-06-22T06:18:09;6.57;;;3.00;;
23747;SDS011;12054;53.662;10.126;2023-06-22T06:20:35;4.20;;;3.25;;
23747;SDS011;12054;53.662;10.126;2023-06-22T06:23:00;3.40;;;2.70;;
23747;SDS011;12054;53.662;10.126;2023-06-22T06:25:26;4.93;;;2.90;;
23747;SDS011;12054;53.662;10.126;2023-06-22T06:27:52;3.83;;;2.95;;
23747;SDS011;12054;53.662;10.126;2023-06-22T06:30:19;4.53;;;2.75;;
23747;SDS011;12054;53.662;10.126;2023-06-22T06:32:45;3.72;;;2.90;;
23747;SDS011;12054;53.662;10.126;2023-06-22T06:35:12;3.70;;;2.88;;
23747;SDS011;12054;53.662;10.126;2023-06-22T06:37:40;6.15;;;3.20;;
23747;SDS011;12054;53.662;10.126;2023-06-22T06:40:07;5.43;;;2.97;;
23747;SDS011;12054;53.662;10.126;2023-06-22T06:42:35;4.07;;;2.80;;
23747;SDS011;12054;53.662;10.126;2023-06-22T06:45:11;4.20;;;2.88;;
23747;SDS011;12054;53.662;10.126;2023-06-22T06:47:38;3.97;;;3.00;;
23747;SDS011;12054;53.662;10.126;2023-06-22T06:50:04;5.53;;;3.28;;
23747;SDS011;12054;53.662;10.126;2023-06-22T06:52:30;5.38;;;3.08;;
23747;SDS011;12054;53.662;10.126;2023-06-22T06:54:56;3.50;;;3.10;;
23747;SDS011;12054;53.662;10.126;2023-06-22T06:57:22;5.22;;;3.40;;
23747;SDS011;12054;53.662;10.126;2023-06-22T06:59:47;4.00;;;3.40;;
23747;SDS011;12054;53.662;10.126;2023-06-22T07:02:14;3.63;;;3.15;;
23747;SDS011;12054;53.662;10.126;2023-06-22T07:04:40;5.70;;;3.45;;
23747;SDS011;12054;53.662;10.126;2023-06-22T07:07:06;6.18;;;3.10;;
23747;SDS011;12054;53.662;10.126;2023-06-22T07:09:32;5.95;;;3.15;;
23747;SDS011;12054;53.662;10.126;2023-06-22T07:11:58;4.10;;;2.75;;
23747;SDS011;12054;53.662;10.126;2023-06-22T07:14:23;5.32;;;2.70;;
23747;SDS011;12054;53.662;10.126;2023-06-22T07:16:49;4.97;;;3.13;;
23747;SDS011;12054;53.662;10.126;2023-06-22T07:19:14;2.90;;;2.60;;
23747;SDS011;12054;53.662;10.126;2023-06-22T07:21:40;7.70;;;3.17;;
23747;SDS011;12054;53.662;10.126;2023-06-22T07:24:06;5.45;;;3.08;;
23747;SDS011;12054;53.662;10.126;2023-06-22T07:26:32;5.05;;;3.08;;
23747;SDS011;12054;53.662;10.126;2023-06-22T07:28:58;3.90;;;3.08;;
23747;SDS011;12054;53.662;10.126;2023-06-22T07:31:26;5.53;;;3.15;;
23747;SDS011;12054;53.662;10.126;2023-06-22T07:33:52;4.22;;;3.22;;
23747;SDS011;12054;53.662;10.126;2023-06-22T07:36:17;7.20;;;3.60;;
23747;SDS011;12054;53.662;10.126;2023-06-22T07:38:43;4.50;;;3.30;;
23747;SDS011;12054;53.662;10.126;2023-06-22T07:41:09;4.32;;;3.55;;
23747;SDS011;12054;53.662;10.126;2023-06-22T07:43:34;5.43;;;3.53;;
23747;SDS011;12054;53.662;10.126;2023-06-22T07:46:04;4.65;;;3.03;;
23747;SDS011;12054;53.662;10.126;2023-06-22T07:48:30;4.05;;;3.10;;
23747;SDS011;12054;53.662;10.126;2023-06-22T07:50:56;4.65;;;3.20;;
23747;SDS011;12054;53.662;10.126;2023-06-22T07:53:21;4.57;;;3.60;;
23747;SDS011;12054;53.662;10.126;2023-06-22T07:55:48;4.18;;;3.10;;
23747;SDS011;12054;53.662;10.126;2023-06-22T07:58:14;4.90;;;3.30;;
23747;SDS011;12054;53.662;10.126;2023-06-22T08:00:40;4.30;;;2.97;;
23747;SDS011;12054;53.662;10.126;2023-06-22T08:03:06;3.30;;;3.00;;
23747;SDS011;12054;53.662;10.126;2023-06-22T08:05:32;5.38;;;3.17;;
23747;SDS011;12054;53.662;10.126;2023-06-22T08:07:57;4.10;;;3.17;;
23747;SDS011;12054;53.662;10.126;2023-06-22T08:10:23;5.35;;;2.95;;
23747;SDS011;12054;53.662;10.126;2023-06-22T08:12:49;4.32;;;3.20;;
23747;SDS011;12054;53.662;10.126;2023-06-22T08:15:14;5.47;;;3.47;;
23747;SDS011;12054;53.662;10.126;2023-06-22T08:17:40;3.55;;;2.80;;
23747;SDS011;12054;53.662;10.126;2023-06-22T08:20:06;4.07;;;2.97;;
23747;SDS011;12054;53.662;10.126;2023-06-22T08:22:36;6.22;;;3.10;;
23747;SDS011;12054;53.662;10.126;2023-06-22T08:25:02;4.93;;;2.88;;
23747;SDS011;12054;53.662;10.126;2023-06-22T08:27:29;3.65;;;2.97;;
23747;SDS011;12054;53.662;10.126;2023-06-22T08:29:57;4.72;;;3.30;;
23747;SDS011;12054;53.662;10.126;2023-06-22T08:32:26;5.68;;;3.38;;
23747;SDS011;12054;53.662;10.126;2023-06-22T08:34:52;4.75;;;2.90;;
23747;SDS011;12054;53.662;10.126;2023-06-22T08:37:19;4.75;;;3.20;;
23747;SDS011;12054;53.662;10.126;2023-06-22T08:39:44;4.10;;;3.28;;
23747;SDS011;12054;53.662;10.126;2023-06-22T08:42:11;4.25;;;2.80;;
23747;SDS011;12054;53.662;10.126;2023-06-22T08:44:36;4.82;;;2.70;;
23747;SDS011;12054;53.662;10.126;2023-06-22T08:47:02;3.85;;;3.10;;
23747;SDS011;12054;53.662;10.126;2023-06-22T08:49:28;4.15;;;3.42;;
23747;SDS011;12054;53.662;10.126;2023-06-22T08:51:54;5.38;;;3.75;;
23747;SDS011;12054;53.662;10.126;2023-06-22T08:54:21;3.38;;;2.83;;
23747;SDS011;12054;53.662;10.126;2023-06-22T08:56:47;3.80;;;2.45;;
23747;SDS011;12054;53.662;10.126;2023-06-22T08:59:12;4.47;;;2.72;;
23747;SDS011;12054;53.662;10.126;2023-06-22T09:01:38;4.68;;;2.78;;
23747;SDS011;12054;53.662;10.126;2023-06-22T09:04:03;3.15;;;2.80;;
23747;SDS011;12054;53.662;10.126;2023-06-22T09:06:31;3.90;;;2.85;;
23747;SDS011;12054;53.662;10.126;2023-06-22T09:08:57;3.50;;;2.60;;
23747;SDS011;12054;53.662;10.126;2023-06-22T09:11:24;3.17;;;2.88;;
23747;SDS011;12054;53.662;10.126;2023-06-22T09:13:50;3.95;;;2.80;;
23747;SDS011;12054;53.662;10.126;2023-06-22T09:16:17;3.88;;;2.47;;
23747;SDS011;12054;53.662;10.126;2023-06-22T09:18:42;3.42;;;2.58;;
23747;SDS011;12054;53.662;10.126;2023-06-22T09:21:11;3.63;;;2.80;;
23747;SDS011;12054;53.662;10.126;2023-06-22T09:23:37;4.78;;;3.30;;
23747;SDS011;12054;53.662;10.126;2023-06-22T09:26:02;4.60;;;2.63;;
23747;SDS011;12054;53.662;10.126;2023-06-22T09:28:29;4.32;;;3.00;;
23747;SDS011;12054;53.662;10.126;2023-06-22T09:30:54;3.17;;;2.70;;
23747;SDS011;12054;53.662;10.126;2023-06-22T09:33:23;5.53;;;3.10;;
23747;SDS011;12054;53.662;10.126;2023-06-22T09:35:49;4.65;;;3.40;;
23747;SDS011;12054;53.662;10.126;2023-06-22T09:38:15;5.20;;;3.10;;
23747;SDS011;12054;53.662;10.126;2023-06-22T09:40:41;4.45;;;3.13;;
23747;SDS011;12054;53.662;10.126;2023-06-22T09:43:07;3.72;;;3.28;;
23747;SDS011;12054;53.662;10.126;2023-06-22T09:45:33;3.50;;;2.83;;
23747;SDS011;12054;53.662;10.126;2023-06-22T09:47:58;3.47;;;2.83;;
23747;SDS011;12054;53.662;10.126;2023-06-22T09:50:24;3.20;;;2.90;;
23747;SDS011;12054;53.662;10.126;2023-06-22T09:52:49;4.10;;;3.15;;
23747;SDS011;12054;53.662;10.126;2023-06-22T09:55:19;4.90;;;3.00;;
23747;SDS011;12054;53.662;10.126;2023-06-22T09:57:45;3.03;;;2.72;;
23747;SDS011;12054;53.662;10.126;2023-06-22T10:00:11;4.95;;;3.40;;
23747;SDS011;12054;53.662;10.126;2023-06-22T10:02:43;4.28;;;3.05;;
23747;SDS011;12054;53.662;10.126;2023-06-22T10:05:09;6.28;;;3.35;;
23747;SDS011;12054;53.662;10.126;2023-06-22T10:07:35;4.00;;;3.53;;
23747;SDS011;12054;53.662;10.126;2023-06-22T10:10:05;4.57;;;3.63;;
23747;SDS011;12054;53.662;10.126;2023-06-22T10:12:31;4.13;;;3.33;;
23747;SDS011;12054;53.662;10.126;2023-06-22T10:14:56;4.75;;;3.53;;
23747;SDS011;12054;53.662;10.126;2023-06-22T10:17:22;3.97;;;3.20;;
23747;SDS011;12054;53.662;10.126;2023-06-22T10:19:47;4.00;;;2.90;;
23747;SDS011;12054;53.662;10.126;2023-06-22T10:22:13;4.93;;;3.40;;
23747;SDS011;12054;53.662;10.126;2023-06-22T10:24:38;4.28;;;3.20;;
23747;SDS011;12054;53.662;10.126;2023-06-22T10:27:09;3.42;;;3.13;;
23747;SDS011;12054;53.662;10.126;2023-06-22T10:29:35;5.20;;;3.80;;
23747;SDS011;12054;53.662;10.126;2023-06-22T10:32:01;4.47;;;3.65;;
23747;SDS011;12054;53.662;10.126;2023-06-22T10:34:27;6.25;;;3.40;;
23747;SDS011;12054;53.662;10.126;2023-06-22T10:36:52;4.63;;;3.20;;
23747;SDS011;12054;53.662;10.126;2023-06-22T10:39:18;5.05;;;3.55;;
23747;SDS011;12054;53.662;10.126;2023-06-22T10:41:43;4.00;;;2.88;;
23747;SDS011;12054;53.662;10.126;2023-06-22T10:44:09;5.70;;;2.95;;
23747;SDS011;12054;53.662;10.126;2023-06-22T10:46:34;4.72;;;3.10;;
23747;SDS011;12054;53.662;10.126;2023-06-22T10:49:00;4.10;;;3.55;;
23747;SDS011;12054;53.662;10.126;2023-06-22T10:51:25;3.97;;;3.28;;
23747;SDS011;12054;53.662;10.126;2023-06-22T10:53:53;3.90;;;3.45;;
23747;SDS011;12054;53.662;10.126;2023-06-22T10:56:18;4.15;;;3.60;;
23747;SDS011;12054;53.662;10.126;2023-06-22T10:58:44;5.53;;;3.60;;
23747;SDS011;12054;53.662;10.126;2023-06-22T11:01:10;3.92;;;3.15;;
23747;SDS011;12054;53.662;10.126;2023-06-22T11:03:36;5.60;;;3.60;;
23747;SDS011;12054;53.662;10.126;2023-06-22T11:06:01;4.40;;;3.88;;
23747;SDS011;12054;53.662;10.126;2023-06-22T11:08:27;6.22;;;3.80;;
23747;SDS011;12054;53.662;10.126;2023-06-22T11:10:52;4.63;;;3.85;;
23747;SDS011;12054;53.662;10.126;2023-06-22T11:13:18;3.65;;;3.35;;
23747;SDS011;12054;53.662;10.126;2023-06-22T11:15:43;5.32;;;4.05;;
23747;SDS011;12054;53.662;10.126;2023-06-22T11:18:09;4.13;;;3.47;;
23747;SDS011;12054;53.662;10.126;2023-06-22T11:20:34;5.10;;;3.58;;
23747;SDS011;12054;53.662;10.126;2023-06-22T11:23:03;5.55;;;4.32;;
23747;SDS011;12054;53.662;10.126;2023-06-22T11:25:30;4.35;;;3.35;;
23747;SDS011;12054;53.662;10.126;2023-06-22T11:27:56;4.57;;;3.72;;
23747;SDS011;12054;53.662;10.126;2023-06-22T11:30:21;4.55;;;4.03;;
23747;SDS011;12054;53.662;10.126;2023-06-22T11:32:47;4.75;;;4.25;;
23747;SDS011;12054;53.662;10.126;2023-06-22T11:35:13;5.28;;;4.10;;
23747;SDS011;12054;53.662;10.126;2023-06-22T11:37:38;4.32;;;3.92;;
23747;SDS011;12054;53.662;10.126;2023-06-22T11:40:04;5.18;;;4.22;;
23747;SDS011;12054;53.662;10.126;2023-06-22T11:42:32;6.20;;;4.35;;
23747;SDS011;12054;53.662;10.126;2023-06-22T11:44:59;6.25;;;4.35;;
23747;SDS011;12054;53.662;10.126;2023-06-22T11:47:24;6.95;;;4.28;;
23747;SDS011;12054;53.662;10.126;2023-06-22T11:49:50;6.13;;;4.45;;
23747;SDS011;12054;53.662;10.126;2023-06-22T11:52:15;5.63;;;4.35;;
23747;SDS011;12054;53.662;10.126;2023-06-22T11:54:42;5.15;;;4.50;;
23747;SDS011;12054;53.662;10.126;2023-06-22T11:57:08;5.97;;;4.68;;
23747;SDS011;12054;53.662;10.126;2023-06-22T11:59:34;5.60;;;5.10;;
23747;SDS011;12054;53.662;10.126;2023-06-22T12:01:59;6.53;;;5.10;;
23747;SDS011;12054;53.662;10.126;2023-06-22T12:04:25;5.30;;;4.57;;
23747;SDS011;12054;53.662;10.126;2023-06-22T12:06:50;5.13;;;4.03;;
23747;SDS011;12054;53.662;10.126;2023-06-22T12:09:16;6.15;;;4.18;;
23747;SDS011;12054;53.662;10.126;2023-06-22T12:11:41;5.30;;;4.80;;
23747;SDS011;12054;53.662;10.126;2023-06-22T12:14:07;5.85;;;4.70;;
23747;SDS011;12054;53.662;10.126;2023-06-22T12:16:32;5.32;;;4.50;;
23747;SDS011;12054;53.662;10.126;2023-06-22T12:18:58;5.15;;;4.75;;
23747;SDS011;12054;53.662;10.126;2023-06-22T12:21:23;6.18;;;5.00;;
23747;SDS011;12054;53.662;10.126;2023-06-22T12:23:49;5.63;;;4.80;;
23747;SDS011;12054;53.662;10.126;2023-06-22T12:26:14;6.68;;;4.90;;
23747;SDS011;12054;53.662;10.126;2023-06-22T12:28:40;5.60;;;5.10;;
23747;SDS011;12054;53.662;10.126;2023-06-22T12:31:06;5.00;;;4.50;;
23747;SDS011;12054;53.662;10.126;2023-06-22T12:33:31;5.72;;;5.13;;
23747;SDS011;12054;53.662;10.126;2023-06-22T12:35:57;4.90;;;4.50;;
23747;SDS011;12054;53.662;10.126;2023-06-22T12:38:22;7.40;;;5.85;;
23747;SDS011;12054;53.662;10.126;2023-06-22T12:40:50;5.57;;;5.07;;
23747;SDS011;12054;53.662;10.126;2023-06-22T12:43:16;5.20;;;4.70;;
23747;SDS011;12054;53.662;10.126;2023-06-22T12:45:42;5.68;;;4.88;;
23747;SDS011;12054;53.662;10.126;2023-06-22T12:48:08;5.10;;;4.60;;
23747;SDS011;12054;53.662;10.126;2023-06-22T12:50:33;5.50;;;5.00;;
23747;SDS011;12054;53.662;10.126;2023-06-22T12:52:59;5.28;;;4.80;;
23747;SDS011;12054;53.662;10.126;2023-06-22T12:55:27;5.43;;;4.93;;
23747;SDS011;12054;53.662;10.126;2023-06-22T12:57:52;6.85;;;5.15;;
23747;SDS011;12054;53.662;10.126;2023-06-22T13:00:18;7.95;;;5.07;;
23747;SDS011;12054;53.662;10.126;2023-06-22T13:02:44;5.55;;;5.03;;
23747;SDS011;12054;53.662;10.126;2023-06-22T13:05:10;5.15;;;4.65;;
23747;SDS011;12054;53.662;10.126;2023-06-22T13:07:35;5.50;;;4.93;;
23747;SDS011;12054;53.662;10.126;2023-06-22T13:10:01;5.50;;;4.57;;
23747;SDS011;12054;53.662;10.126;2023-06-22T13:12:27;5.93;;;5.00;;
23747;SDS011;12054;53.662;10.126;2023-06-22T13:14:52;8.07;;;5.72;;
23747;SDS011;12054;53.662;10.126;2023-06-22T13:17:18;5.85;;;5.30;;
23747;SDS011;12054;53.662;10.126;2023-06-22T13:19:43;5.90;;;5.38;;
23747;SDS011;12054;53.662;10.126;2023-06-22T13:22:28;7.10;;;5.70;;
23747;SDS011;12054;53.662;10.126;2023-06-22T13:24:59;6.88;;;4.75;;
23747;SDS011;12054;53.662;10.126;2023-06-22T13:27:25;5.63;;;5.05;;
23747;SDS011;12054;53.662;10.126;2023-06-22T13:29:50;5.43;;;4.65;;
23747;SDS011;12054;53.662;10.126;2023-06-22T13:32:16;5.25;;;4.85;;
23747;SDS011;12054;53.662;10.126;2023-06-22T13:34:42;5.40;;;4.90;;
23747;SDS011;12054;53.662;10.126;2023-06-22T13:37:08;5.38;;;4.88;;
23747;SDS011;12054;53.662;10.126;2023-06-22T13:39:33;6.57;;;5.30;;
23747;SDS011;12054;53.662;10.126;2023-06-22T13:41:59;5.82;;;5.00;;
23747;SDS011;12054;53.662;10.126;2023-06-22T13:44:24;5.05;;;4.55;;
23747;SDS011;12054;53.662;10.126;2023-06-22T13:46:53;6.05;;;5.28;;
23747;SDS011;12054;53.662;10.126;2023-06-22T13:49:22;7.38;;;4.60;;
23747;SDS011;12054;53.662;10.126;2023-06-22T13:51:48;5.47;;;4.88;;
23747;SDS011;12054;53.662;10.126;2023-06-22T13:54:14;5.28;;;4.78;;
23747;SDS011;12054;53.662;10.126;2023-06-22T13:56:39;7.50;;;5.40;;
23747;SDS011;12054;53.662;10.126;2023-06-22T13:59:05;9.80;;;5.78;;
23747;SDS011;12054;53.662;10.126;2023-06-22T14:01:34;5.95;;;5.43;;
23747;SDS011;12054;53.662;10.126;2023-06-22T14:03:59;5.80;;;5.30;;
23747;SDS011;12054;53.662;10.126;2023-06-22T14:06:26;6.30;;;5.22;;
23747;SDS011;12054;53.662;10.126;2023-06-22T14:08:52;5.70;;;5.20;;
23747;SDS011;12054;53.662;10.126;2023-06-22T14:11:17;5.10;;;4.57;;
23747;SDS011;12054;53.662;10.126;2023-06-22T14:13:43;6.28;;;5.68;;
23747;SDS011;12054;53.662;10.126;2023-06-22T14:16:08;5.97;;;5.38;;
23747;SDS011;12054;53.662;10.126;2023-06-22T14:18:34;5.68;;;5.18;;
23747;SDS011;12054;53.662;10.126;2023-06-22T14:20:59;6.07;;;5.57;;
23747;SDS011;12054;53.662;10.126;2023-06-22T14:23:25;6.57;;;5.50;;
23747;SDS011;12054;53.662;10.126;2023-06-22T14:25:50;5.60;;;5.10;;
23747;SDS011;12054;53.662;10.126;2023-06-22T14:28:16;7.22;;;5.75;;
23747;SDS011;12054;53.662;10.126;2023-06-22T14:30:41;5.75;;;5.15;;
23747;SDS011;12054;53.662;10.126;2023-06-22T14:33:07;8.15;;;5.45;;